createdAt,value
2022-09-24T00:01:39.486Z,6.43
2022-09-24T00:04:09.569Z,6.43
2022-09-24T00:06:40.845Z,5.60
2022-09-24T00:09:08.608Z,6.53
2022-09-24T00:11:39.103Z,5.53
2022-09-24T00:14:07.607Z,6.60
2022-09-24T00:16:35.810Z,6.55
2022-09-24T00:19:05.211Z,5.78
2022-09-24T00:21:35.540Z,5.40
2022-09-24T00:24:06.637Z,5.68
2022-09-24T00:26:52.161Z,5.43
2022-09-24T00:29:23.797Z,5.97
2022-09-24T00:31:53.280Z,5.70
2022-09-24T00:34:21.667Z,5.40
2022-09-24T00:36:49.462Z,5.50
2022-09-24T00:39:17.989Z,5.57
2022-09-24T00:41:48.784Z,5.03
2022-09-24T00:44:48.664Z,5.70
2022-09-24T00:47:25.969Z,5.80
2022-09-24T00:49:57.215Z,7.15
2022-09-24T00:52:24.936Z,7.07
2022-09-24T00:54:53.635Z,6.07
2022-09-24T00:57:21.433Z,6.80
2022-09-24T00:59:50.749Z,6.13
2022-09-24T01:02:18.572Z,5.95
2022-09-24T01:04:48.330Z,6.38
2022-09-24T01:07:16.204Z,6.80
2022-09-24T01:09:44.105Z,5.95
2022-09-24T01:12:18.502Z,5.15
2022-09-24T01:15:04.829Z,5.28
2022-09-24T01:17:40.713Z,5.72
2022-09-24T01:20:39.675Z,5.45
2022-09-24T01:23:25.648Z,6.22
2022-09-24T01:26:09.243Z,6.22
2022-09-24T01:28:45.321Z,5.68
2022-09-24T01:31:21.321Z,5.35
2022-09-24T01:36:22.740Z,5.82
2022-09-24T01:38:53.191Z,6.03
2022-09-24T01:41:22.603Z,5.97
2022-09-24T01:43:50.700Z,6.28
2022-09-24T01:46:21.377Z,5.82
2022-09-24T01:48:50.289Z,5.78
2022-09-24T01:51:22.837Z,5.88
2022-09-24T01:53:56.048Z,5.63
2022-09-24T01:56:27.660Z,6.10
2022-09-24T01:59:00.393Z,5.90
2022-09-24T02:01:33.369Z,6.13
2022-09-24T02:04:07.152Z,5.38
2022-09-24T02:06:38.961Z,5.07
2022-09-24T02:09:07.067Z,5.50
2022-09-24T02:11:37.822Z,6.57
2022-09-24T02:14:10.449Z,6.30
2022-09-24T02:16:45.824Z,5.82
2022-09-24T02:19:17.567Z,6.07
2022-09-24T02:21:47.031Z,5.60
2022-09-24T02:24:18.164Z,5.93
2022-09-24T02:26:46.231Z,5.82
2022-09-24T02:29:14.627Z,5.90
2022-09-24T02:31:47.575Z,5.78
2022-09-24T02:34:21.408Z,6.00
2022-09-24T02:36:50.090Z,5.40
2022-09-24T02:39:18.373Z,6.55
2022-09-24T02:41:48.008Z,5.85
2022-09-24T02:44:16.417Z,6.10
2022-09-24T02:46:52.832Z,5.63
2022-09-24T02:49:20.580Z,5.65
2022-09-24T02:51:48.285Z,6.15
2022-09-24T02:54:16.056Z,5.80
2022-09-24T02:56:43.832Z,5.60
2022-09-24T02:59:12.198Z,5.45
2022-09-24T03:01:40.410Z,5.43
2022-09-24T03:04:09.938Z,4.80
2022-09-24T03:06:37.730Z,4.25
2022-09-24T03:09:06.093Z,3.85
2022-09-24T03:11:35.534Z,3.90
2022-09-24T03:14:03.268Z,3.45
2022-09-24T03:16:31.029Z,3.85
2022-09-24T03:18:58.741Z,3.08
2022-09-24T03:21:27.942Z,3.20
2022-09-24T03:23:55.755Z,3.20
2022-09-24T03:26:23.469Z,3.13
2022-09-24T03:28:51.223Z,3.45
2022-09-24T03:31:18.030Z,3.22
2022-09-24T03:33:47.157Z,3.38
2022-09-24T03:36:17.404Z,3.53
2022-09-24T03:38:48.334Z,3.60
2022-09-24T03:41:17.113Z,3.80
2022-09-24T03:43:44.965Z,4.15
2022-09-24T03:46:13.681Z,3.22
2022-09-24T03:48:42.495Z,3.65
2022-09-24T03:51:12.428Z,3.70
2022-09-24T03:53:40.627Z,3.50
2022-09-24T03:56:11.787Z,3.22
2022-09-24T03:58:41.247Z,4.07
2022-09-24T04:01:12.002Z,3.70
2022-09-24T04:03:40.408Z,4.03
2022-09-24T04:06:08.624Z,4.13
2022-09-24T04:08:36.483Z,3.90
2022-09-24T04:11:04.393Z,3.80
2022-09-24T04:13:33.483Z,3.75
2022-09-24T04:16:03.196Z,3.67
2022-09-24T04:18:33.616Z,3.67
2022-09-24T04:21:03.788Z,3.85
2022-09-24T04:23:32.045Z,5.10
2022-09-24T04:26:00.608Z,3.80
2022-09-24T04:28:28.863Z,3.60
2022-09-24T04:30:58.056Z,4.20
2022-09-24T04:33:25.837Z,3.53
2022-09-24T04:35:53.678Z,3.85
2022-09-24T04:38:21.878Z,3.25
2022-09-24T04:40:49.972Z,3.67
2022-09-24T04:43:18.988Z,3.78
2022-09-24T04:45:47.615Z,3.95
2022-09-24T04:48:17.171Z,3.38
2022-09-24T04:50:46.448Z,3.67
2022-09-24T04:53:14.746Z,3.65
2022-09-24T04:55:42.511Z,3.25
2022-09-24T04:58:10.725Z,3.42
2022-09-24T05:00:38.483Z,3.30
2022-09-24T05:03:06.669Z,3.22
2022-09-24T05:05:36.623Z,3.75
2022-09-24T05:08:04.747Z,3.63
2022-09-24T05:10:33.175Z,3.55
2022-09-24T05:13:02.043Z,3.58
2022-09-24T05:15:29.755Z,3.50
2022-09-24T05:17:57.460Z,4.50
2022-09-24T05:20:25.578Z,4.72
2022-09-24T05:22:54.972Z,4.45
2022-09-24T05:25:23.380Z,4.47
2022-09-24T05:27:51.867Z,4.93
2022-09-24T05:30:21.184Z,5.10
2022-09-24T05:32:51.786Z,5.32
2022-09-24T05:35:19.988Z,6.03
2022-09-24T05:37:49.417Z,6.95
2022-09-24T05:40:36.230Z,6.90
2022-09-24T05:43:05.118Z,6.88
2022-09-24T05:45:33.490Z,6.60
2022-09-24T05:48:01.591Z,6.38
2022-09-24T05:50:29.324Z,6.05
2022-09-24T05:52:57.060Z,5.63
2022-09-24T05:55:30.175Z,7.22
2022-09-24T05:58:04.367Z,9.67
2022-09-24T06:00:32.321Z,8.55
2022-09-24T06:03:05.320Z,10.00
2022-09-24T06:05:34.169Z,11.85
2022-09-24T06:08:02.546Z,10.27
2022-09-24T06:10:31.868Z,9.43
2022-09-24T06:12:59.565Z,9.60
2022-09-24T06:15:27.532Z,9.20
2022-09-24T06:17:55.583Z,10.90
2022-09-24T06:20:23.658Z,8.48
2022-09-24T06:22:52.347Z,8.15
2022-09-24T06:25:20.058Z,8.10
2022-09-24T06:27:56.024Z,7.55
2022-09-24T06:32:51.321Z,8.80
2022-09-24T06:35:20.413Z,8.98
2022-09-24T06:37:49.181Z,8.48
2022-09-24T06:40:17.412Z,8.30
2022-09-24T06:42:45.168Z,8.70
2022-09-24T06:45:14.632Z,8.23
2022-09-24T06:47:42.309Z,7.90
2022-09-24T06:50:10.559Z,8.35
2022-09-24T06:52:38.259Z,8.02
2022-09-24T06:55:06.972Z,7.78
2022-09-24T06:57:34.652Z,8.10
2022-09-24T07:00:02.692Z,8.48
2022-09-24T07:02:31.777Z,8.18
2022-09-24T07:04:59.480Z,8.10
2022-09-24T07:07:34.117Z,6.63
2022-09-24T07:10:03.620Z,8.00
2022-09-24T07:12:32.951Z,8.27
2022-09-24T07:15:01.356Z,8.05
2022-09-24T07:17:33.894Z,7.30
2022-09-24T07:20:02.405Z,8.05
2022-09-24T07:22:30.093Z,7.65
2022-09-24T07:24:57.788Z,8.45
2022-09-24T07:27:25.492Z,7.72
2022-09-24T07:29:53.181Z,8.05
2022-09-24T07:32:20.869Z,7.45
2022-09-24T07:34:49.881Z,9.43
2022-09-24T07:37:17.541Z,8.25
2022-09-24T07:39:45.547Z,8.45
2022-09-24T07:42:13.206Z,8.75
2022-09-24T07:44:41.015Z,7.97
2022-09-24T07:47:13.355Z,7.30
2022-09-24T07:49:43.248Z,8.80
2022-09-24T07:52:12.473Z,7.72
2022-09-24T07:54:40.532Z,7.72
2022-09-24T07:57:13.468Z,15.60
2022-09-24T07:59:41.642Z,10.32
2022-09-24T08:02:16.258Z,9.45
2022-09-24T08:04:44.236Z,11.15
2022-09-24T08:07:14.143Z,12.57
2022-09-24T08:09:41.908Z,7.72
2022-09-24T08:12:10.965Z,9.20
2022-09-24T08:14:38.641Z,8.48
2022-09-24T08:17:06.330Z,8.07
2022-09-24T08:19:34.365Z,8.75
2022-09-24T08:22:02.062Z,7.90
2022-09-24T08:24:31.745Z,8.63
2022-09-24T08:26:59.665Z,7.07
2022-09-24T08:29:27.341Z,6.93
2022-09-24T08:31:55.039Z,7.10
2022-09-24T08:34:22.795Z,7.10
2022-09-24T08:36:50.614Z,7.88
2022-09-24T08:39:18.327Z,12.27
2022-09-24T08:41:56.002Z,7.65
2022-09-24T08:44:47.662Z,8.07
2022-09-24T08:47:24.635Z,7.75
2022-09-24T08:50:03.130Z,7.85
2022-09-24T08:52:41.629Z,7.00
2022-09-24T08:55:16.049Z,7.45
2022-09-24T08:57:55.848Z,8.07
2022-09-24T09:00:23.604Z,7.57
2022-09-24T09:02:59.372Z,9.55
2022-09-24T09:08:27.548Z,9.23
2022-09-24T09:11:01.601Z,9.55
2022-09-24T09:13:37.127Z,8.65
2022-09-24T09:16:08.111Z,7.80
2022-09-24T09:18:41.259Z,6.93
2022-09-24T09:21:17.607Z,6.60
2022-09-24T09:23:49.455Z,6.63
2022-09-24T09:26:20.068Z,5.80
2022-09-24T09:28:49.794Z,6.25
2022-09-24T09:31:29.479Z,6.68
2022-09-24T09:34:18.485Z,6.30
2022-09-24T09:36:58.969Z,5.93
2022-09-24T09:39:37.483Z,5.72
2022-09-24T09:42:23.039Z,6.82
2022-09-24T09:44:52.529Z,6.63
2022-09-24T09:47:27.239Z,5.55
2022-09-24T09:49:58.745Z,6.70
2022-09-24T09:52:31.057Z,6.75
2022-09-24T09:54:59.117Z,7.28
2022-09-24T09:57:27.318Z,6.07
2022-09-24T09:59:56.917Z,6.80
2022-09-24T10:02:28.246Z,7.03
2022-09-24T10:04:57.717Z,7.30
2022-09-24T10:07:25.668Z,6.50
2022-09-24T10:10:03.775Z,6.40
2022-09-24T10:12:31.878Z,5.72
2022-09-24T10:15:03.090Z,5.53
2022-09-24T10:17:35.633Z,6.00
2022-09-24T10:20:09.416Z,4.68
2022-09-24T10:22:39.314Z,4.68
2022-09-24T10:25:07.732Z,5.10
2022-09-24T10:27:38.089Z,5.13
2022-09-24T10:30:35.893Z,5.30
2022-09-24T10:33:06.115Z,4.88
2022-09-24T10:35:38.353Z,4.90
2022-09-24T10:38:17.696Z,5.10
2022-09-24T10:40:45.853Z,4.82
2022-09-24T10:43:18.893Z,4.22
2022-09-24T10:46:01.215Z,4.75
2022-09-24T10:48:35.983Z,4.45
2022-09-24T10:51:12.938Z,5.60
2022-09-24T10:53:50.768Z,5.35
2022-09-24T10:56:27.944Z,4.57
2022-09-24T10:59:27.865Z,5.18
2022-09-24T11:02:15.040Z,5.10
2022-09-24T11:04:51.503Z,4.60
2022-09-24T11:07:55.014Z,4.68
2022-09-24T11:10:32.703Z,5.25
2022-09-24T11:13:15.365Z,4.93
2022-09-24T11:16:04.518Z,5.28
2022-09-24T11:18:41.704Z,4.47
2022-09-24T11:21:24.264Z,4.65
2022-09-24T11:24:13.742Z,4.10
2022-09-24T11:26:55.200Z,4.30
2022-09-24T11:29:37.182Z,4.50
2022-09-24T11:32:13.771Z,4.45
2022-09-24T11:34:55.460Z,4.80
2022-09-24T11:37:39.530Z,4.95
2022-09-24T11:40:22.661Z,4.05
2022-09-24T11:43:01.879Z,4.75
2022-09-24T11:45:43.251Z,4.13
2022-09-24T11:48:43.628Z,4.55
2022-09-24T11:51:23.841Z,5.03
2022-09-24T11:53:58.200Z,4.90
2022-09-24T11:56:31.084Z,4.80
2022-09-24T11:59:03.756Z,4.53
2022-09-24T12:01:34.634Z,3.70
2022-09-24T12:04:10.349Z,4.35
2022-09-24T12:06:47.238Z,4.53
2022-09-24T12:09:20.493Z,4.22
2022-09-24T12:11:55.005Z,4.40
2022-09-24T12:14:26.247Z,4.43
2022-09-24T12:16:59.111Z,3.70
2022-09-24T12:19:32.512Z,3.75
2022-09-24T12:22:04.242Z,4.25
2022-09-24T12:24:36.992Z,4.32
2022-09-24T12:27:12.301Z,4.32
2022-09-24T12:30:05.216Z,4.13
2022-09-24T12:32:57.720Z,3.88
2022-09-24T12:35:41.004Z,4.18
2022-09-24T12:38:15.338Z,3.88
2022-09-24T12:41:20.007Z,3.92
2022-09-24T12:43:52.582Z,3.38
2022-09-24T12:46:23.738Z,3.35
2022-09-24T12:48:53.347Z,3.25
2022-09-24T12:51:23.723Z,3.08
2022-09-24T12:54:01.236Z,4.13
2022-09-24T12:56:31.184Z,3.97
2022-09-24T12:58:59.569Z,3.80
2022-09-24T13:01:30.354Z,3.55
2022-09-24T13:04:25.932Z,4.30
2022-09-24T13:06:54.647Z,3.75
2022-09-24T13:09:36.833Z,3.63
2022-09-24T13:12:19.773Z,3.78
2022-09-24T13:14:52.649Z,2.92
2022-09-24T13:17:20.432Z,3.92
2022-09-24T13:19:51.596Z,3.38
2022-09-24T13:22:26.134Z,3.30
2022-09-24T13:25:19.110Z,2.95
2022-09-24T13:27:58.172Z,3.55
2022-09-24T13:30:35.217Z,3.97
2022-09-24T13:33:10.672Z,4.03
2022-09-24T13:35:45.261Z,4.03
2022-09-24T13:38:21.683Z,3.85
2022-09-24T13:40:58.517Z,4.43
2022-09-24T13:43:37.831Z,4.40
2022-09-24T13:46:12.013Z,4.20
2022-09-24T13:48:43.669Z,4.22
2022-09-24T13:51:14.895Z,4.68
2022-09-24T13:53:48.152Z,4.10
2022-09-24T13:56:20.243Z,3.78
2022-09-24T13:58:51.236Z,4.32
2022-09-24T14:01:22.059Z,3.92
2022-09-24T14:03:55.279Z,4.05
2022-09-24T14:06:34.490Z,3.35
2022-09-24T14:09:02.544Z,4.05
2022-09-24T14:11:31.679Z,4.38
2022-09-24T14:14:11.329Z,3.83
2022-09-24T14:16:39.025Z,3.78
2022-09-24T14:19:07.178Z,3.28
2022-09-24T14:21:38.220Z,3.33
2022-09-24T14:24:10.086Z,3.30
2022-09-24T14:26:42.674Z,3.60
2022-09-24T14:29:15.955Z,3.60
2022-09-24T14:31:47.144Z,4.15
2022-09-24T14:34:25.188Z,3.40
2022-09-24T14:36:54.043Z,3.78
2022-09-24T14:39:25.145Z,3.33
2022-09-24T14:41:55.910Z,4.00
2022-09-24T14:44:26.367Z,4.53
2022-09-24T14:46:57.687Z,4.47
2022-09-24T14:49:27.525Z,4.50
2022-09-24T14:51:57.539Z,4.10
2022-09-24T14:54:32.566Z,4.05
2022-09-24T14:57:12.884Z,4.72
2022-09-24T14:59:41.572Z,4.18
2022-09-24T15:02:18.835Z,4.15
2022-09-24T15:04:49.027Z,3.97
2022-09-24T15:07:18.766Z,3.78
2022-09-24T15:09:51.292Z,3.90
2022-09-24T15:12:24.717Z,4.40
2022-09-24T15:14:57.126Z,4.20
2022-09-24T15:17:29.840Z,4.10
2022-09-24T15:19:57.991Z,4.13
2022-09-24T15:22:26.772Z,3.55
2022-09-24T15:25:00.284Z,4.32
2022-09-24T15:27:32.525Z,4.32
2022-09-24T15:30:01.597Z,4.10
2022-09-24T15:32:30.877Z,4.30
2022-09-24T15:34:58.793Z,3.85
2022-09-24T15:37:27.918Z,4.45
2022-09-24T15:39:59.993Z,4.13
2022-09-24T15:42:28.196Z,4.07
2022-09-24T15:44:58.942Z,3.92
2022-09-24T15:47:26.659Z,4.00
2022-09-24T15:49:54.358Z,3.50
2022-09-24T15:52:26.067Z,4.03
2022-09-24T15:54:55.104Z,4.20
2022-09-24T15:57:23.455Z,4.40
2022-09-24T15:59:51.527Z,4.05
2022-09-24T16:02:25.867Z,4.00
2022-09-24T16:04:54.082Z,5.28
2022-09-24T16:07:21.787Z,3.95
2022-09-24T16:09:49.650Z,3.80
2022-09-24T16:12:18.125Z,3.70
2022-09-24T16:14:46.092Z,3.58
2022-09-24T16:17:13.895Z,3.55
2022-09-24T16:19:42.909Z,3.50
2022-09-24T16:22:10.602Z,4.13
2022-09-24T16:24:38.295Z,3.53
2022-09-24T16:27:05.979Z,3.70
2022-09-24T16:29:33.688Z,3.70
2022-09-24T16:32:02.067Z,3.35
2022-09-24T16:34:29.872Z,3.63
2022-09-24T16:36:58.899Z,3.78
2022-09-24T16:39:26.676Z,3.75
2022-09-24T16:41:54.673Z,3.60
2022-09-24T16:44:22.367Z,3.50
2022-09-24T16:46:50.914Z,3.72
2022-09-24T16:49:19.292Z,3.65
2022-09-24T16:51:47.032Z,3.88
2022-09-24T16:54:16.047Z,3.58
2022-09-24T16:56:43.723Z,3.85
2022-09-24T16:59:11.857Z,4.07
2022-09-24T17:01:42.240Z,4.15
2022-09-24T17:04:10.240Z,3.92
2022-09-24T17:06:38.022Z,4.03
2022-09-24T17:09:23.139Z,4.43
2022-09-24T17:11:52.311Z,3.88
2022-09-24T17:14:20.056Z,3.28
2022-09-24T17:16:47.776Z,4.05
2022-09-24T17:19:16.168Z,3.60
2022-09-24T17:21:45.910Z,4.18
2022-09-24T17:24:17.858Z,3.85
2022-09-24T17:26:49.040Z,3.13
2022-09-24T17:29:20.480Z,2.90
2022-09-24T17:31:48.260Z,2.45
2022-09-24T17:34:15.995Z,2.60
2022-09-24T17:36:43.889Z,2.40
2022-09-24T17:39:13.432Z,2.50
2022-09-24T17:41:41.424Z,2.60
2022-09-24T17:44:10.590Z,2.90
2022-09-24T17:46:39.650Z,2.53
2022-09-24T17:49:07.548Z,3.17
2022-09-24T17:51:37.641Z,2.83
2022-09-24T17:54:07.973Z,4.20
2022-09-24T17:56:38.675Z,4.00
2022-09-24T17:59:07.846Z,5.22
2022-09-24T18:01:37.384Z,4.07
2022-09-24T18:04:08.077Z,4.72
2022-09-24T18:06:38.313Z,4.10
2022-09-24T18:09:06.404Z,3.58
2022-09-24T18:11:39.075Z,3.85
2022-09-24T18:14:06.837Z,4.07
2022-09-24T18:16:34.936Z,3.58
2022-09-24T18:19:03.547Z,3.75
2022-09-24T18:21:32.827Z,4.97
2022-09-24T18:24:01.496Z,4.93
2022-09-24T18:26:32.253Z,3.83
2022-09-24T18:29:01.719Z,4.05
2022-09-24T18:31:30.823Z,4.00
2022-09-24T18:34:03.795Z,3.80
2022-09-24T18:36:34.278Z,4.18
2022-09-24T18:39:02.551Z,3.72
2022-09-24T18:41:31.982Z,4.03
2022-09-24T18:44:00.412Z,5.07
2022-09-24T18:46:31.511Z,4.75
2022-09-24T18:49:00.328Z,4.15
2022-09-24T18:51:29.695Z,4.50
2022-09-24T18:54:00.103Z,5.00
2022-09-24T18:56:28.609Z,5.20
2022-09-24T18:58:57.245Z,5.40
2022-09-24T19:01:26.998Z,5.10
2022-09-24T19:03:55.336Z,4.85
2022-09-24T19:06:23.240Z,6.07
2022-09-24T19:08:51.065Z,5.95
2022-09-24T19:11:21.377Z,6.60
2022-09-24T19:13:51.173Z,6.00
2022-09-24T19:16:20.528Z,6.13
2022-09-24T19:18:48.440Z,6.57
2022-09-24T19:21:16.739Z,6.60
2022-09-24T19:23:46.218Z,5.63
2022-09-24T19:26:16.028Z,4.88
2022-09-24T19:28:45.933Z,4.70
2022-09-24T19:31:16.630Z,6.18
2022-09-24T19:33:45.011Z,6.07
2022-09-24T19:36:13.357Z,5.47
2022-09-24T19:38:42.155Z,4.60
2022-09-24T19:41:14.874Z,4.80
2022-09-24T19:43:44.995Z,4.82
2022-09-24T19:46:16.722Z,4.05
2022-09-24T19:48:46.423Z,4.55
2022-09-24T19:51:16.193Z,3.97
2022-09-24T19:53:44.428Z,4.25
2022-09-24T19:56:14.217Z,4.07
2022-09-24T19:58:41.959Z,4.68
2022-09-24T20:01:16.297Z,5.85
2022-09-24T20:03:46.118Z,5.20
2022-09-24T20:06:17.217Z,4.32
2022-09-24T20:08:46.587Z,4.78
2022-09-24T20:11:17.085Z,4.63
2022-09-24T20:13:46.079Z,4.78
2022-09-24T20:16:19.013Z,5.75
2022-09-24T20:18:47.247Z,6.78
2022-09-24T20:21:17.078Z,5.93
2022-09-24T20:23:45.626Z,5.55
2022-09-24T20:26:31.625Z,5.60
2022-09-24T20:28:59.670Z,5.30
2022-09-24T20:31:29.797Z,4.95
2022-09-24T20:33:58.407Z,5.75
2022-09-24T20:36:26.364Z,6.65
2022-09-24T20:38:54.304Z,6.68
2022-09-24T20:41:25.072Z,6.65
2022-09-24T20:43:55.065Z,6.15
2022-09-24T20:46:24.871Z,6.20
2022-09-24T20:48:57.988Z,5.68
2022-09-24T20:51:27.185Z,5.70
2022-09-24T20:53:55.220Z,6.50
2022-09-24T20:56:23.439Z,5.70
2022-09-24T20:58:52.901Z,6.53
2022-09-24T21:01:21.387Z,7.45
2022-09-24T21:03:50.001Z,7.35
2022-09-24T21:06:22.600Z,7.75
2022-09-24T21:08:50.691Z,8.60
2022-09-24T21:11:20.829Z,8.27
2022-09-24T21:13:51.426Z,8.25
2022-09-24T21:16:20.990Z,8.40
2022-09-24T21:18:49.851Z,8.27
2022-09-24T21:21:20.532Z,8.27
2022-09-24T21:23:49.694Z,8.30
2022-09-24T21:26:19.133Z,8.07
2022-09-24T21:28:48.123Z,9.23
2022-09-24T21:31:16.128Z,8.82
2022-09-24T21:33:47.097Z,9.82
2022-09-24T21:36:18.413Z,9.30
2022-09-24T21:38:54.142Z,8.85
2022-09-24T21:41:22.980Z,9.45
2022-09-24T21:43:50.995Z,8.05
2022-09-24T21:46:18.827Z,8.43
2022-09-24T21:48:46.722Z,8.55
2022-09-24T21:51:19.345Z,8.90
2022-09-24T21:53:48.511Z,8.73
2022-09-24T21:56:18.766Z,8.88
2022-09-24T21:58:46.847Z,8.88
2022-09-24T22:01:17.319Z,10.20
2022-09-24T22:03:46.560Z,10.70
2022-09-24T22:06:15.250Z,11.60
2022-09-24T22:08:45.335Z,12.15
2022-09-24T22:11:15.694Z,12.07
2022-09-24T22:13:43.478Z,12.52
2022-09-24T22:16:12.304Z,11.45
2022-09-24T22:18:40.905Z,11.77
2022-09-24T22:21:10.491Z,10.80
2022-09-24T22:23:38.725Z,10.38
2022-09-24T22:26:08.005Z,10.25
2022-09-24T22:28:38.095Z,10.02
2022-09-24T22:31:07.840Z,10.70
2022-09-24T22:33:53.911Z,9.40
2022-09-24T22:36:21.939Z,9.48
2022-09-24T22:38:52.997Z,8.73
2022-09-24T22:41:21.256Z,9.43
2022-09-24T22:43:50.427Z,9.40
2022-09-24T22:46:18.295Z,7.63
2022-09-24T22:48:47.244Z,8.63
2022-09-24T22:51:16.111Z,8.95
2022-09-24T22:53:43.838Z,9.45
2022-09-24T22:56:13.641Z,9.10
2022-09-24T22:58:43.220Z,9.38
2022-09-24T23:01:16.678Z,10.20
2022-09-24T23:03:45.660Z,10.55
2022-09-24T23:06:13.651Z,11.95
2022-09-24T23:08:42.587Z,10.77
2022-09-24T23:11:12.084Z,11.45
2022-09-24T23:13:41.180Z,11.18
2022-09-24T23:16:12.894Z,12.10
2022-09-24T23:18:42.266Z,13.25
2022-09-24T23:21:12.197Z,12.75
2022-09-24T23:23:39.949Z,12.75
2022-09-24T23:26:16.277Z,13.75
2022-09-24T23:28:45.679Z,15.65
2022-09-24T23:31:15.983Z,15.18
2022-09-24T23:33:44.282Z,16.48
2022-09-24T23:36:14.236Z,16.70
2022-09-24T23:38:42.842Z,18.75
2022-09-24T23:41:11.879Z,19.10
2022-09-24T23:43:39.689Z,20.60
2022-09-24T23:46:07.920Z,21.35
2022-09-24T23:48:37.320Z,19.15
2022-09-24T23:51:05.271Z,19.83
2022-09-24T23:53:34.174Z,20.75
2022-09-24T23:56:03.334Z,21.75
2022-09-24T23:58:31.656Z,23.48
